createdAt,value
2018-09-26T00:00:37.321Z,1054.55
2018-09-26T00:01:37.309Z,1054.52
2018-09-26T00:02:37.297Z,1054.47
2018-09-26T00:03:37.285Z,1054.48
2018-09-26T00:04:37.274Z,1054.5
2018-09-26T00:05:37.261Z,1054.47
2018-09-26T00:06:37.250Z,1054.48
2018-09-26T00:07:37.238Z,1054.47
2018-09-26T00:08:37.225Z,1054.42
2018-09-26T00:09:37.215Z,1054.45
2018-09-26T00:10:37.203Z,1054.42
2018-09-26T00:11:37.191Z,1054.43
2018-09-26T00:12:37.182Z,1054.45
2018-09-26T00:13:37.169Z,1054.42
2018-09-26T00:14:37.155Z,1054.43
2018-09-26T00:15:37.144Z,1054.42
2018-09-26T00:16:37.131Z,1054.4
2018-09-26T00:17:37.120Z,1054.42
2018-09-26T00:18:37.110Z,1054.4
2018-09-26T00:19:37.097Z,1054.39
2018-09-26T00:20:37.084Z,1054.38
2018-09-26T00:21:37.072Z,1054.38
2018-09-26T00:22:37.061Z,1054.33
2018-09-26T00:23:37.049Z,1054.32
2018-09-26T00:24:37.041Z,1054.33
2018-09-26T00:25:37.025Z,1054.37
2018-09-26T00:26:37.014Z,1054.31
2018-09-26T00:27:37.001Z,1054.31
2018-09-26T00:28:36.990Z,1054.29
2018-09-26T00:29:36.978Z,1054.3
2018-09-26T00:30:36.965Z,1054.27
2018-09-26T00:31:36.954Z,1054.21
2018-09-26T00:32:36.942Z,1054.24
2018-09-26T00:33:36.931Z,1054.27
2018-09-26T00:34:36.969Z,1054.31
2018-09-26T00:35:36.912Z,1054.24
2018-09-26T00:36:36.896Z,1054.27
2018-09-26T00:37:36.891Z,1054.25
2018-09-26T00:38:36.871Z,1054.24
2018-09-26T00:39:36.860Z,1054.24
2018-09-26T00:40:36.848Z,1054.2
2018-09-26T00:41:36.836Z,1054.22
2018-09-26T00:42:36.828Z,1054.23
2018-09-26T00:43:36.813Z,1054.24
2018-09-26T00:44:36.801Z,1054.25
2018-09-26T00:45:36.789Z,1054.27
2018-09-26T00:46:36.780Z,1054.3
2018-09-26T00:47:36.765Z,1054.26
2018-09-26T00:48:36.754Z,1054.29
2018-09-26T00:49:36.741Z,1054.33
2018-09-26T00:50:36.730Z,1054.3
2018-09-26T00:51:36.718Z,1054.3
2018-09-26T00:52:36.706Z,1054.33
2018-09-26T00:53:36.694Z,1054.3
2018-09-26T00:54:36.689Z,1054.26
2018-09-26T00:55:36.672Z,1054.25
2018-09-26T00:56:36.658Z,1054.21
2018-09-26T00:57:36.647Z,1054.18
2018-09-26T00:58:36.635Z,1054.2
2018-09-26T00:59:36.628Z,1054.16
2018-09-26T01:00:36.611Z,1054.17
2018-09-26T01:01:36.600Z,1054.13
2018-09-26T01:02:36.588Z,1054.17
2018-09-26T01:03:36.576Z,1054.12
2018-09-26T01:04:36.563Z,1054.15
2018-09-26T01:05:36.552Z,1054.11
2018-09-26T01:06:36.541Z,1054.1
2018-09-26T01:07:36.531Z,1054.08
2018-09-26T01:08:36.520Z,1054.05
2018-09-26T01:09:36.505Z,1054.01
2018-09-26T01:10:36.497Z,1053.96
2018-09-26T01:11:36.482Z,1053.95
2018-09-26T01:12:36.471Z,1053.92
2018-09-26T01:13:36.458Z,1053.9
2018-09-26T01:14:36.446Z,1053.9
2018-09-26T01:15:36.434Z,1053.91
2018-09-26T01:16:36.422Z,1053.87
2018-09-26T01:17:36.411Z,1053.84
2018-09-26T01:18:36.399Z,1053.83
2018-09-26T01:19:36.387Z,1053.8
2018-09-26T01:20:36.376Z,1053.76
2018-09-26T01:21:36.362Z,1053.73
2018-09-26T01:22:36.351Z,1053.68
2018-09-26T01:23:36.339Z,1053.64
2018-09-26T01:24:36.328Z,1053.66
2018-09-26T01:25:36.315Z,1053.66
2018-09-26T01:26:36.303Z,1053.69
2018-09-26T01:27:36.292Z,1053.7
2018-09-26T01:28:36.279Z,1053.73
2018-09-26T01:29:36.271Z,1053.76
2018-09-26T01:30:36.256Z,1053.77
2018-09-26T01:31:36.243Z,1053.74
2018-09-26T01:32:36.230Z,1053.75
2018-09-26T01:33:36.220Z,1053.76
2018-09-26T01:34:36.208Z,1053.77
2018-09-26T01:35:36.196Z,1053.76
2018-09-26T01:36:36.183Z,1053.77
2018-09-26T01:37:36.172Z,1053.78
2018-09-26T01:38:36.160Z,1053.75
2018-09-26T01:39:36.148Z,1053.72
2018-09-26T01:40:36.136Z,1053.7
2018-09-26T01:41:36.248Z,1053.66
2018-09-26T01:42:36.111Z,1053.62
2018-09-26T01:43:36.099Z,1053.65
2018-09-26T01:44:36.087Z,1053.62
2018-09-26T01:45:36.075Z,1053.65
2018-09-26T01:46:36.063Z,1053.67
2018-09-26T01:47:36.050Z,1053.63
2018-09-26T01:48:36.039Z,1053.59
2018-09-26T01:49:36.026Z,1053.55
2018-09-26T01:50:36.016Z,1053.57
2018-09-26T01:51:36.002Z,1053.57
2018-09-26T01:52:35.990Z,1053.58
2018-09-26T01:53:35.978Z,1053.61
2018-09-26T01:54:35.966Z,1053.61
2018-09-26T01:55:35.953Z,1053.63
2018-09-26T01:56:35.941Z,1053.67
2018-09-26T01:57:35.929Z,1053.67
2018-09-26T01:58:35.916Z,1053.64
2018-09-26T01:59:35.904Z,1053.63
2018-09-26T02:00:35.892Z,1053.63
2018-09-26T02:01:35.881Z,1053.64
2018-09-26T02:02:35.867Z,1053.66
2018-09-26T02:03:35.855Z,1053.71
2018-09-26T02:04:35.843Z,1053.71
2018-09-26T02:05:35.830Z,1053.78
2018-09-26T02:06:35.818Z,1053.79
2018-09-26T02:07:35.806Z,1053.8
2018-09-26T02:08:35.796Z,1053.81
2018-09-26T02:09:35.781Z,1053.75
2018-09-26T02:10:35.768Z,1053.72
2018-09-26T02:11:35.757Z,1053.65
2018-09-26T02:12:35.748Z,1053.64
2018-09-26T02:13:35.732Z,1053.61
2018-09-26T02:14:35.720Z,1053.56
2018-09-26T02:15:35.708Z,1053.5
2018-09-26T02:16:35.694Z,1053.44
2018-09-26T02:17:35.686Z,1053.45
2018-09-26T02:18:35.672Z,1053.45
2018-09-26T02:19:35.660Z,1053.44
2018-09-26T02:20:35.646Z,1053.44
2018-09-26T02:21:35.634Z,1053.42
2018-09-26T02:22:35.624Z,1053.39
2018-09-26T02:23:35.627Z,1053.37
2018-09-26T02:24:35.599Z,1053.37
2018-09-26T02:25:35.585Z,1053.33
2018-09-26T02:26:35.574Z,1053.3
2018-09-26T02:27:35.561Z,1053.24
2018-09-26T02:28:35.549Z,1053.14
2018-09-26T02:29:35.537Z,1053.15
2018-09-26T02:30:35.526Z,1053.14
2018-09-26T02:31:35.511Z,1053.16
2018-09-26T02:32:35.505Z,1053.18
2018-09-26T02:33:35.487Z,1053.24
2018-09-26T02:34:35.477Z,1053.2
2018-09-26T02:35:35.464Z,1053.22
2018-09-26T02:36:35.451Z,1053.21
2018-09-26T02:37:35.440Z,1053.22
2018-09-26T02:38:35.427Z,1053.17
2018-09-26T02:39:35.420Z,1053.16
2018-09-26T02:40:35.403Z,1053.19
2018-09-26T02:41:35.391Z,1053.21
2018-09-26T02:42:35.379Z,1053.21
2018-09-26T02:43:35.367Z,1053.22
2018-09-26T02:44:35.354Z,1053.18
2018-09-26T02:45:35.346Z,1053.22
2018-09-26T02:46:35.336Z,1053.22
2018-09-26T02:47:35.320Z,1053.24
2018-09-26T02:48:35.307Z,1053.27
2018-09-26T02:49:35.295Z,1053.3
2018-09-26T02:50:35.283Z,1053.26
2018-09-26T02:51:35.272Z,1053.31
2018-09-26T02:52:35.259Z,1053.37
2018-09-26T02:53:35.247Z,1053.41
2018-09-26T02:54:35.235Z,1053.38
2018-09-26T02:55:35.276Z,1053.41
2018-09-26T02:56:35.210Z,1053.44
2018-09-26T02:57:35.203Z,1053.4
2018-09-26T02:58:35.194Z,1053.4
2018-09-26T02:59:35.175Z,1053.44
2018-09-26T03:00:35.163Z,1053.44
2018-09-26T03:01:35.151Z,1053.5
2018-09-26T03:02:35.139Z,1053.51
2018-09-26T03:03:35.127Z,1053.5
2018-09-26T03:04:35.116Z,1053.44
2018-09-26T03:05:35.103Z,1053.41
2018-09-26T03:06:35.092Z,1053.38
2018-09-26T03:07:35.079Z,1053.33
2018-09-26T03:08:35.066Z,1053.32
2018-09-26T03:09:35.055Z,1053.29
2018-09-26T03:10:35.042Z,1053.2
2018-09-26T03:11:35.030Z,1053.18
2018-09-26T03:12:35.019Z,1053.18
2018-09-26T03:13:35.007Z,1053.18
2018-09-26T03:14:34.995Z,1053.12
2018-09-26T03:15:34.985Z,1053.08
2018-09-26T03:16:34.969Z,1053.13
2018-09-26T03:17:35.074Z,1053.17
2018-09-26T03:18:34.945Z,1053.12
2018-09-26T03:19:34.933Z,1053.11
2018-09-26T03:20:34.921Z,1053.11
2018-09-26T03:21:34.910Z,1053.09
2018-09-26T03:22:34.898Z,1053.08
2018-09-26T03:23:34.885Z,1053.14
2018-09-26T03:24:34.874Z,1053.12
2018-09-26T03:25:34.862Z,1053.12
2018-09-26T03:26:34.848Z,1053.14
2018-09-26T03:27:34.837Z,1053.19
2018-09-26T03:28:34.824Z,1053.23
2018-09-26T03:29:34.811Z,1053.22
2018-09-26T03:30:34.799Z,1053.26
2018-09-26T03:31:34.789Z,1053.28
2018-09-26T03:32:34.775Z,1053.27
2018-09-26T03:33:34.821Z,1053.24
2018-09-26T03:34:34.751Z,1053.27
2018-09-26T03:35:34.739Z,1053.29
2018-09-26T03:36:34.727Z,1053.24
2018-09-26T03:37:34.714Z,1053.28
2018-09-26T03:38:34.702Z,1053.24
2018-09-26T03:39:34.690Z,1053.23
2018-09-26T03:40:34.695Z,1053.25
2018-09-26T03:41:34.665Z,1053.21
2018-09-26T03:42:34.653Z,1053.21
2018-09-26T03:43:34.641Z,1053.22
2018-09-26T03:44:34.628Z,1053.23
2018-09-26T03:45:34.616Z,1053.25
2018-09-26T03:46:34.604Z,1053.28
2018-09-26T03:47:34.592Z,1053.27
2018-09-26T03:48:34.581Z,1053.23
2018-09-26T03:49:34.567Z,1053.2
2018-09-26T03:50:34.563Z,1053.18
2018-09-26T03:51:34.543Z,1053.2
2018-09-26T03:52:34.531Z,1053.15
2018-09-26T03:53:34.518Z,1053.12
2018-09-26T03:54:34.507Z,1053.13
2018-09-26T03:55:34.496Z,1053.05
2018-09-26T03:56:34.481Z,1053.03
2018-09-26T03:57:34.470Z,1052.99
2018-09-26T03:58:34.464Z,1052.95
2018-09-26T03:59:34.447Z,1052.94
2018-09-26T04:00:34.436Z,1052.87
2018-09-26T04:01:34.426Z,1052.84
2018-09-26T04:02:34.408Z,1052.83
2018-09-26T04:03:34.396Z,1052.8
2018-09-26T04:04:34.386Z,1052.76
2018-09-26T04:05:34.374Z,1052.74
2018-09-26T04:06:34.359Z,1052.73
2018-09-26T04:07:34.349Z,1052.68
2018-09-26T04:08:34.337Z,1052.67
2018-09-26T04:09:34.324Z,1052.66
2018-09-26T04:10:34.312Z,1052.67
2018-09-26T04:11:34.299Z,1052.69
2018-09-26T04:12:34.319Z,1052.66
2018-09-26T04:13:34.275Z,1052.64
2018-09-26T04:14:34.265Z,1052.59
2018-09-26T04:15:34.272Z,1052.59
2018-09-26T04:16:34.240Z,1052.59
2018-09-26T04:17:34.227Z,1052.62
2018-09-26T04:18:34.215Z,1052.62
2018-09-26T04:19:34.204Z,1052.57
2018-09-26T04:20:34.193Z,1052.61
2018-09-26T04:21:34.179Z,1052.55
2018-09-26T04:22:34.168Z,1052.55
2018-09-26T04:23:34.159Z,1052.5
2018-09-26T04:24:34.144Z,1052.47
2018-09-26T04:25:34.132Z,1052.45
2018-09-26T04:26:34.254Z,1052.45
2018-09-26T04:27:34.155Z,1052.41
2018-09-26T04:28:34.100Z,1052.46
2018-09-26T04:29:34.092Z,1052.42
2018-09-26T04:30:34.216Z,1052.39
2018-09-26T04:31:34.059Z,1052.35
2018-09-26T04:32:34.064Z,1052.32
2018-09-26T04:33:34.055Z,1052.31
2018-09-26T04:34:34.024Z,1052.27
2018-09-26T04:35:34.015Z,1052.24
2018-09-26T04:36:33.998Z,1052.22
2018-09-26T04:37:33.988Z,1052.18
2018-09-26T04:38:34.093Z,1052.19
2018-09-26T04:39:33.963Z,1052.17
2018-09-26T04:40:33.953Z,1052.14
2018-09-26T04:41:33.939Z,1052.11
2018-09-26T04:42:33.927Z,1052.14
2018-09-26T04:43:33.915Z,1052.08
2018-09-26T04:44:33.903Z,1052.08
2018-09-26T04:45:33.891Z,1052.09
2018-09-26T04:46:33.879Z,1052.09
2018-09-26T04:47:33.867Z,1052.05
2018-09-26T04:48:33.855Z,1052
2018-09-26T04:49:33.844Z,1051.96
2018-09-26T04:50:33.831Z,1051.96
2018-09-26T04:51:33.821Z,1051.94
2018-09-26T04:52:33.809Z,1051.96
2018-09-26T04:53:33.800Z,1051.92
2018-09-26T04:54:33.785Z,1051.94
2018-09-26T04:55:33.773Z,1051.97
2018-09-26T04:56:33.764Z,1051.96
2018-09-26T04:57:33.749Z,1051.93
2018-09-26T04:58:33.738Z,1051.9
2018-09-26T04:59:33.726Z,1051.86
2018-09-26T05:00:33.715Z,1051.87
2018-09-26T05:01:33.705Z,1051.81
2018-09-26T05:02:33.691Z,1051.79
2018-09-26T05:03:33.679Z,1051.8
2018-09-26T05:04:33.667Z,1051.8
2018-09-26T05:05:33.655Z,1051.81
2018-09-26T05:06:33.644Z,1051.85
2018-09-26T05:07:33.633Z,1051.82
2018-09-26T05:08:33.620Z,1051.84
2018-09-26T05:09:33.609Z,1051.8
2018-09-26T05:10:33.598Z,1051.82
2018-09-26T05:11:33.587Z,1051.77
2018-09-26T05:12:33.576Z,1051.75
2018-09-26T05:13:33.562Z,1051.71
2018-09-26T05:14:33.559Z,1051.68
2018-09-26T05:15:33.539Z,1051.62
2018-09-26T05:16:33.527Z,1051.53
2018-09-26T05:17:33.516Z,1051.55
2018-09-26T05:18:33.504Z,1051.53
2018-09-26T05:19:33.492Z,1051.48
2018-09-26T05:20:33.481Z,1051.44
2018-09-26T05:21:33.469Z,1051.44
2018-09-26T05:22:33.459Z,1051.45
2018-09-26T05:23:33.446Z,1051.43
2018-09-26T05:24:33.438Z,1051.43
2018-09-26T05:25:33.423Z,1051.43
2018-09-26T05:26:33.410Z,1051.38
2018-09-26T05:27:33.399Z,1051.33
2018-09-26T05:28:33.388Z,1051.33
2018-09-26T05:29:33.377Z,1051.3
2018-09-26T05:30:33.364Z,1051.24
2018-09-26T05:31:33.353Z,1051.18
2018-09-26T05:32:33.343Z,1051.15
2018-09-26T05:33:33.331Z,1051.05
2018-09-26T05:34:33.319Z,1050.97
2018-09-26T05:35:33.308Z,1050.94
2018-09-26T05:36:33.297Z,1050.94
2018-09-26T05:37:33.285Z,1050.87
2018-09-26T05:38:33.275Z,1050.83
2018-09-26T05:39:33.262Z,1050.77
2018-09-26T05:40:33.252Z,1050.69
2018-09-26T05:41:33.285Z,1050.64
2018-09-26T05:42:33.234Z,1050.56
2018-09-26T05:43:33.217Z,1050.43
2018-09-26T05:44:33.207Z,1050.34
2018-09-26T05:45:33.194Z,1050.28
2018-09-26T05:46:33.184Z,1050.25
2018-09-26T05:47:33.173Z,1050.25
2018-09-26T05:48:33.161Z,1050.27
2018-09-26T05:49:33.150Z,1050.2
2018-09-26T05:50:33.146Z,1050.15
2018-09-26T05:51:33.130Z,1050.09
2018-09-26T05:52:33.117Z,1050.06
2018-09-26T05:53:33.233Z,1049.98
2018-09-26T05:54:33.098Z,1049.93
2018-09-26T05:55:33.087Z,1049.84
2018-09-26T05:56:33.077Z,1049.8
2018-09-26T05:57:33.067Z,1049.69
2018-09-26T05:58:33.056Z,1049.63
2018-09-26T05:59:33.092Z,1049.55
2018-09-26T06:00:33.035Z,1049.43
2018-09-26T06:01:33.025Z,1049.32
2018-09-26T06:02:33.015Z,1049.15
2018-09-26T06:03:33.004Z,1049.05
2018-09-26T06:04:32.995Z,1048.98
2018-09-26T06:05:33.037Z,1048.87
2018-09-26T06:06:32.975Z,1048.82
2018-09-26T06:07:32.972Z,1048.71
2018-09-26T06:08:32.957Z,1048.52
2018-09-26T06:09:32.949Z,1048.43
2018-09-26T06:10:32.941Z,1048.38
2018-09-26T06:11:32.933Z,1048.23
2018-09-26T06:12:32.924Z,1047.97
2018-09-26T06:13:32.912Z,1047.85
2018-09-26T06:14:32.903Z,1047.79
2018-09-26T06:15:32.898Z,1047.8
2018-09-26T06:16:32.890Z,1047.85
2018-09-26T06:17:32.879Z,1047.86
2018-09-26T06:18:32.870Z,1047.97
2018-09-26T06:19:32.862Z,1047.98
2018-09-26T06:20:32.855Z,1048.02
2018-09-26T06:21:32.846Z,1048.1
2018-09-26T06:22:32.838Z,1048.15
2018-09-26T06:23:32.830Z,1048.13
2018-09-26T06:24:32.840Z,1048.13
2018-09-26T06:25:32.814Z,1048.07
2018-09-26T06:26:32.810Z,1048.03
2018-09-26T06:27:32.808Z,1048.07
2018-09-26T06:28:32.791Z,1048.08
2018-09-26T06:29:32.784Z,1048.07
2018-09-26T06:30:32.777Z,1048.17
2018-09-26T06:31:32.772Z,1048.25
2018-09-26T06:32:32.761Z,1048.2
2018-09-26T06:33:32.754Z,1048.21
2018-09-26T06:34:32.749Z,1048.18
2018-09-26T06:35:32.740Z,1048.19
2018-09-26T06:36:32.732Z,1048.17
2018-09-26T06:37:32.724Z,1048.14
2018-09-26T06:38:32.717Z,1048.16
2018-09-26T06:39:32.709Z,1048.11
2018-09-26T06:40:32.735Z,1048.1
2018-09-26T06:41:32.695Z,1048.09
2018-09-26T06:42:32.688Z,1048.13
2018-09-26T06:43:32.679Z,1048.14
2018-09-26T06:44:32.673Z,1048.13
2018-09-26T06:45:32.666Z,1048.15
2018-09-26T06:46:32.659Z,1048.08
2018-09-26T06:47:32.699Z,1048.09
2018-09-26T06:48:32.644Z,1048
2018-09-26T06:49:32.637Z,1047.96
2018-09-26T06:50:32.629Z,1047.9
2018-09-26T06:51:32.621Z,1047.78
2018-09-26T06:52:32.614Z,1047.68
2018-09-26T06:53:32.608Z,1047.6
2018-09-26T06:54:32.600Z,1047.43
2018-09-26T06:55:32.593Z,1047.31
2018-09-26T06:56:32.587Z,1047.23
2018-09-26T06:57:32.579Z,1047.14
2018-09-26T06:58:32.574Z,1047.09
2018-09-26T06:59:32.566Z,1047.06
2018-09-26T07:00:32.560Z,1046.93
2018-09-26T07:01:32.552Z,1046.83
2018-09-26T07:02:32.546Z,1046.9
2018-09-26T07:03:32.540Z,1046.92
2018-09-26T07:04:32.534Z,1047
2018-09-26T07:05:32.526Z,1047.04
2018-09-26T07:06:32.520Z,1047.17
2018-09-26T07:07:32.514Z,1047.27
2018-09-26T07:08:32.507Z,1047.3
2018-09-26T07:09:32.501Z,1047.36
2018-09-26T07:10:32.495Z,1047.36
2018-09-26T07:11:32.492Z,1047.48
2018-09-26T07:12:32.481Z,1047.51
2018-09-26T07:13:32.475Z,1047.54
2018-09-26T07:14:32.469Z,1047.56
2018-09-26T07:15:32.464Z,1047.56
2018-09-26T07:16:32.457Z,1047.57
2018-09-26T07:17:32.451Z,1047.61
2018-09-26T07:18:32.444Z,1047.62
2018-09-26T07:19:32.439Z,1047.58
2018-09-26T07:20:32.430Z,1047.54
2018-09-26T07:21:32.425Z,1047.53
2018-09-26T07:22:32.419Z,1047.44
2018-09-26T07:23:32.412Z,1047.46
2018-09-26T07:24:32.405Z,1047.36
2018-09-26T07:25:32.400Z,1047.32
2018-09-26T07:26:32.394Z,1047.28
2018-09-26T07:27:32.386Z,1047.25
2018-09-26T07:28:32.381Z,1047.31
2018-09-26T07:30:32.372Z,1047.39
2018-09-26T07:31:32.487Z,1047.4
2018-09-26T07:32:32.356Z,1047.45
2018-09-26T07:33:32.350Z,1047.37
2018-09-26T07:34:32.344Z,1047.39
2018-09-26T07:35:32.337Z,1047.42
2018-09-26T07:36:32.332Z,1047.39
2018-09-26T07:37:32.325Z,1047.44
2018-09-26T07:38:32.344Z,1047.27
2018-09-26T07:39:32.312Z,1047.31
2018-09-26T07:40:32.306Z,1047.25
2018-09-26T07:41:32.303Z,1046.57
2018-09-26T07:42:32.294Z,1046.21
2018-09-26T07:43:32.289Z,1045.79
2018-09-26T07:44:32.287Z,1045.36
2018-09-26T07:45:32.375Z,1045.03
2018-09-26T07:46:32.272Z,1044.72
2018-09-26T07:47:32.268Z,1044.39
2018-09-26T07:48:32.263Z,1044.29
2018-09-26T07:49:32.258Z,1044.31
2018-09-26T07:50:32.254Z,1044.65
2018-09-26T07:51:32.250Z,1045.06
2018-09-26T07:52:32.244Z,1045.35
2018-09-26T07:53:32.241Z,1045.57
2018-09-26T07:54:32.237Z,1045.71
2018-09-26T07:55:32.233Z,1045.87
2018-09-26T07:56:32.227Z,1045.86
2018-09-26T07:57:32.224Z,1045.91
2018-09-26T07:58:32.220Z,1045.86
2018-09-26T07:59:32.219Z,1045.74
2018-09-26T08:00:32.254Z,1045.77
2018-09-26T08:01:32.208Z,1045.7
2018-09-26T08:02:32.204Z,1045.71
2018-09-26T08:03:32.202Z,1045.63
2018-09-26T08:04:32.196Z,1045.64
2018-09-26T08:05:32.192Z,1045.59
2018-09-26T08:06:32.188Z,1045.74
2018-09-26T08:07:32.183Z,1045.76
2018-09-26T08:08:32.199Z,1045.84
2018-09-26T08:09:32.176Z,1045.92
2018-09-26T08:10:32.176Z,1045.94
2018-09-26T08:11:32.222Z,1046.01
2018-09-26T08:12:32.168Z,1046.14
2018-09-26T08:13:32.163Z,1046.21
2018-09-26T08:14:32.154Z,1046.32
2018-09-26T08:15:32.157Z,1046.45
2018-09-26T08:16:32.147Z,1046.47
2018-09-26T08:17:32.144Z,1046.49
2018-09-26T08:18:32.250Z,1046.4
2018-09-26T08:19:32.135Z,1046.32
2018-09-26T08:20:32.131Z,1046.29
2018-09-26T08:21:32.127Z,1046.17
2018-09-26T08:22:32.122Z,1045.97
2018-09-26T08:23:32.118Z,1045.86
2018-09-26T08:24:32.364Z,1045.81
2018-09-26T08:25:32.109Z,1045.72
2018-09-26T08:26:32.106Z,1045.62
2018-09-26T08:27:32.109Z,1045.49
2018-09-26T08:28:32.098Z,1045.34
2018-09-26T08:29:32.094Z,1045.41
2018-09-26T08:30:32.091Z,1045.3
2018-09-26T08:31:32.087Z,1045.31
2018-09-26T08:32:32.088Z,1045.27
2018-09-26T08:33:32.078Z,1045.29
2018-09-26T08:34:32.075Z,1045.22
2018-09-26T08:35:32.075Z,1045.15
2018-09-26T08:36:32.067Z,1045.13
2018-09-26T08:37:32.111Z,1045.14
2018-09-26T08:38:32.060Z,1045.18
2018-09-26T08:39:32.056Z,1045.12
2018-09-26T08:40:32.052Z,1045.13
2018-09-26T08:41:32.049Z,1045.05
2018-09-26T08:42:32.045Z,1045.1
2018-09-26T08:43:32.041Z,1045.04
2018-09-26T08:44:32.037Z,1044.97
2018-09-26T08:45:32.035Z,1044.89
2018-09-26T08:46:32.031Z,1044.81
2018-09-26T08:47:32.028Z,1044.7
2018-09-26T08:48:32.025Z,1044.65
2018-09-26T08:49:32.021Z,1044.55
2018-09-26T08:50:32.018Z,1044.43
2018-09-26T08:51:32.017Z,1044.44
2018-09-26T08:52:32.011Z,1044.26
2018-09-26T08:53:32.020Z,1044.24
2018-09-26T08:54:32.006Z,1044.16
2018-09-26T08:55:32.002Z,1044.14
2018-09-26T08:56:32.002Z,1044.08
2018-09-26T08:57:31.996Z,1044.01
2018-09-26T08:58:31.993Z,1043.98
2018-09-26T08:59:32.002Z,1044
2018-09-26T09:00:31.988Z,1043.97
2018-09-26T09:01:31.986Z,1043.95
2018-09-26T09:02:31.982Z,1043.97
2018-09-26T09:03:31.980Z,1043.94
2018-09-26T09:04:31.977Z,1043.96
2018-09-26T09:05:31.975Z,1043.89
2018-09-26T09:06:31.973Z,1043.81
2018-09-26T09:07:31.971Z,1043.88
2018-09-26T09:08:31.969Z,1043.82
2018-09-26T09:09:31.966Z,1043.82
2018-09-26T09:10:31.966Z,1043.82
2018-09-26T09:11:32.011Z,1043.74
2018-09-26T09:12:31.962Z,1043.74
2018-09-26T09:13:31.956Z,1043.74
2018-09-26T09:14:32.030Z,1043.71
2018-09-26T09:15:31.951Z,1043.68
2018-09-26T09:16:31.949Z,1043.69
2018-09-26T09:17:31.946Z,1043.74
2018-09-26T09:18:31.944Z,1043.69
2018-09-26T09:19:31.943Z,1043.7
2018-09-26T09:20:31.938Z,1043.71
2018-09-26T09:21:31.936Z,1043.73
2018-09-26T09:22:31.934Z,1043.74
2018-09-26T09:23:31.932Z,1043.77
2018-09-26T09:24:31.929Z,1043.83
2018-09-26T09:25:31.926Z,1043.92
2018-09-26T09:26:31.925Z,1043.94
2018-09-26T09:27:31.991Z,1044.1
2018-09-26T09:28:31.919Z,1044.13
2018-09-26T09:29:31.918Z,1044.16
2018-09-26T09:30:31.915Z,1044.21
2018-09-26T09:31:31.912Z,1044.28
2018-09-26T09:32:31.914Z,1044.44
2018-09-26T09:33:31.906Z,1044.43
2018-09-26T09:34:31.904Z,1044.52
2018-09-26T09:35:31.903Z,1044.54
2018-09-26T09:36:31.919Z,1044.61
2018-09-26T09:37:31.896Z,1044.62
2018-09-26T09:38:31.892Z,1044.66
2018-09-26T09:39:31.890Z,1044.72
2018-09-26T09:40:31.887Z,1044.73
2018-09-26T09:41:31.885Z,1044.76
2018-09-26T09:42:31.881Z,1044.75
2018-09-26T09:43:31.879Z,1044.69
2018-09-26T09:44:32.010Z,1044.69
2018-09-26T09:45:31.873Z,1044.69
2018-09-26T09:46:31.869Z,1044.66
2018-09-26T09:47:31.866Z,1044.62
2018-09-26T09:48:31.863Z,1044.64
2018-09-26T09:49:31.859Z,1044.65
2018-09-26T09:50:31.857Z,1044.63
2018-09-26T09:51:31.906Z,1044.62
2018-09-26T09:52:31.852Z,1044.52
2018-09-26T09:53:31.848Z,1044.5
2018-09-26T09:54:31.845Z,1044.49
2018-09-26T09:55:31.843Z,1044.51
2018-09-26T09:56:31.852Z,1044.44
2018-09-26T09:57:31.836Z,1044.41
2018-09-26T09:58:31.833Z,1044.35
2018-09-26T09:59:31.830Z,1044.28
2018-09-26T10:00:31.827Z,1044.21
2018-09-26T10:01:31.824Z,1044.16
2018-09-26T10:02:31.896Z,1044.03
2018-09-26T10:03:31.818Z,1043.99
2018-09-26T10:04:31.815Z,1043.95
2018-09-26T10:05:31.812Z,1044.09
2018-09-26T10:06:31.809Z,1044.04
2018-09-26T10:07:31.806Z,1044.1
2018-09-26T10:08:31.803Z,1044.15
2018-09-26T10:09:31.804Z,1044.16
2018-09-26T10:10:31.798Z,1044.21
2018-09-26T10:11:31.793Z,1044.19
2018-09-26T10:12:31.791Z,1044.26
2018-09-26T10:13:31.788Z,1044.3
2018-09-26T10:15:31.782Z,1044.25
2018-09-26T10:16:31.779Z,1044.3
2018-09-26T10:17:31.831Z,1044.32
2018-09-26T10:18:31.774Z,1044.17
2018-09-26T10:19:31.770Z,1044.33
2018-09-26T10:20:31.768Z,1044.33
2018-09-26T10:21:31.764Z,1044.31
2018-09-26T10:22:31.764Z,1044.24
2018-09-26T10:23:31.758Z,1044.28
2018-09-26T10:24:31.756Z,1044.3
2018-09-26T10:25:31.753Z,1044.24
2018-09-26T10:26:31.750Z,1044.27
2018-09-26T10:27:31.747Z,1044.22
2018-09-26T10:28:31.743Z,1044.24
2018-09-26T10:29:31.740Z,1044.25
2018-09-26T10:30:31.740Z,1044.3
2018-09-26T10:31:31.734Z,1044.28
2018-09-26T10:32:31.731Z,1044.26
2018-09-26T10:33:31.730Z,1044.29
2018-09-26T10:34:31.725Z,1044.33
2018-09-26T10:35:31.726Z,1044.3
2018-09-26T10:36:31.719Z,1044.3
2018-09-26T10:37:31.715Z,1044.28
2018-09-26T10:38:31.713Z,1044.18
2018-09-26T10:39:31.710Z,1044.14
2018-09-26T10:40:31.707Z,1044.1
2018-09-26T10:41:31.733Z,1044.07
2018-09-26T10:42:31.701Z,1044.1
2018-09-26T10:43:31.698Z,1044.14
2018-09-26T10:44:31.698Z,1044.12
2018-09-26T10:45:31.696Z,1044.13
2018-09-26T10:46:31.710Z,1044.05
2018-09-26T10:47:31.687Z,1044.07
2018-09-26T10:48:31.683Z,1044.06
2018-09-26T10:49:31.680Z,1043.95
2018-09-26T10:50:31.677Z,1043.94
2018-09-26T10:51:31.674Z,1043.84
2018-09-26T10:52:31.671Z,1043.78
2018-09-26T10:53:31.668Z,1043.7
2018-09-26T10:54:31.665Z,1043.62
2018-09-26T10:55:31.661Z,1043.51
2018-09-26T10:56:31.796Z,1043.44
2018-09-26T10:57:31.656Z,1043.41
2018-09-26T10:58:31.653Z,1043.31
2018-09-26T10:59:31.650Z,1043.17
2018-09-26T11:00:31.648Z,1043.15
2018-09-26T11:01:31.645Z,1043.11
2018-09-26T11:02:31.709Z,1043.11
2018-09-26T11:03:31.640Z,1043.11
2018-09-26T11:04:31.636Z,1043.12
2018-09-26T11:05:31.635Z,1043.08
2018-09-26T11:06:31.630Z,1043.2
2018-09-26T11:07:31.629Z,1043.32
2018-09-26T11:08:31.626Z,1043.35
2018-09-26T11:09:31.624Z,1043.38
2018-09-26T11:10:31.620Z,1043.36
2018-09-26T11:11:31.617Z,1043.44
2018-09-26T11:12:31.632Z,1043.52
2018-09-26T11:13:31.614Z,1043.5
2018-09-26T11:14:31.610Z,1043.58
2018-09-26T11:15:31.607Z,1043.59
2018-09-26T11:16:31.605Z,1043.7
2018-09-26T11:17:31.601Z,1043.73
2018-09-26T11:18:31.598Z,1043.69
2018-09-26T11:19:31.599Z,1043.76
2018-09-26T11:20:31.596Z,1043.78
2018-09-26T11:21:31.590Z,1043.78
2018-09-26T11:22:31.587Z,1043.76
2018-09-26T11:23:31.584Z,1043.78
2018-09-26T11:24:31.581Z,1043.78
2018-09-26T11:25:31.580Z,1043.76
2018-09-26T11:26:31.634Z,1043.66
2018-09-26T11:27:31.572Z,1043.64
2018-09-26T11:28:31.568Z,1043.68
2018-09-26T11:29:31.569Z,1043.65
2018-09-26T11:30:31.563Z,1043.62
2018-09-26T11:31:31.559Z,1043.56
2018-09-26T11:32:31.555Z,1043.59
2018-09-26T11:33:31.696Z,1043.55
2018-09-26T11:34:31.549Z,1043.64
2018-09-26T11:35:31.544Z,1043.55
2018-09-26T11:36:31.541Z,1043.61
2018-09-26T11:37:31.538Z,1043.52
2018-09-26T11:38:31.535Z,1043.49
2018-09-26T11:39:31.531Z,1043.47
2018-09-26T11:40:31.528Z,1043.39
2018-09-26T11:41:31.524Z,1043.44
2018-09-26T11:42:31.521Z,1043.42
2018-09-26T11:43:31.517Z,1043.43
2018-09-26T11:44:31.516Z,1043.41
2018-09-26T11:45:31.509Z,1043.51
2018-09-26T11:46:31.505Z,1043.49
2018-09-26T11:47:31.501Z,1043.48
2018-09-26T11:48:31.498Z,1043.48
2018-09-26T11:49:31.495Z,1043.39
2018-09-26T11:50:31.490Z,1043.45
2018-09-26T11:51:31.488Z,1043.51
2018-09-26T11:52:31.483Z,1043.45
2018-09-26T11:53:31.483Z,1043.51
2018-09-26T11:54:31.475Z,1043.49
2018-09-26T11:55:31.471Z,1043.5
2018-09-26T11:56:31.635Z,1043.44
2018-09-26T11:57:31.463Z,1043.58
2018-09-26T11:58:31.460Z,1043.54
2018-09-26T11:59:31.456Z,1043.49
2018-09-26T12:00:31.452Z,1043.44
2018-09-26T12:01:31.449Z,1043.41
2018-09-26T12:02:31.517Z,1043.45
2018-09-26T12:03:31.440Z,1043.35
2018-09-26T12:04:31.436Z,1043.25
2018-09-26T12:05:31.432Z,1043.2
2018-09-26T12:06:31.428Z,1043.14
2018-09-26T12:07:31.493Z,1043.11
2018-09-26T12:08:31.425Z,1043.05
2018-09-26T12:09:31.417Z,1042.95
2018-09-26T12:10:31.413Z,1042.93